Terminal Aerodrome Forecast
Issued by NWS

Home | Current Version | Previous Version | Text Only | Print | Product List | Glossary On
Versions: 1 2 3 4 5 6 7 8 9 10 11 12 13 14 15 16 17
000
FTUS43 KBIS 220500
TAFJMS
TAF
KJMS 220520Z 2206/2306 33009KT P6SM SKC
     FM220800 36005KT 4SM BR BKN100
     FM221700 36008KT P6SM VCTS BKN040CB=

USA.gov is the U.S. government's official web portal to all federal, state and local government web resources and services.